Time;durP1;ratioP1;P1;durP2;ratioP2;P2;SDS_P1;SDS_P2;PMS_P1;PMS_P2;Temp;Humidity;BMP_temperature;BMP_pressure;BME280_temperature;BME280_humidity;BME280_pressure;Samples;Min_cycle;Max_cycle;Signal;HPM_P1;HPM_P2
2023/12/11 00:05:17;;;;;;;14.60;10.40;;;;;;;1.85;100.00;98438.65;433553;1259;139904;-70
2023/12/11 00:15:22;;;;;;;;;;;;;;;1.87;100.00;98423.75;433160;1258;140546;-70
2023/12/11 00:25:29;;;;;;;11.90;8.30;;;;;;;1.88;100.00;98418.82;434928;1259;128365;-70
2023/12/11 00:35:36;;;;;;;13.30;9.30;;;;;;;1.91;100.00;98412.14;433559;1260;140062;-70
2023/12/11 00:45:42;;;;;;;13.70;9.30;;;;;;;1.92;100.00;98409.88;432759;1258;140138;-70
2023/12/11 00:55:49;;;;;;;16.00;8.10;;;;;;;1.91;100.00;98405.91;437239;1255;140525;-71
2023/12/11 01:05:55;;;;;;;14.60;8.20;;;;;;;1.91;100.00;98393.16;433535;1255;264652;-70
2023/12/11 01:16:02;;;;;;;15.90;9.00;;;;;;;1.90;100.00;98375.77;434492;1257;140239;-71
2023/12/11 01:26:08;;;;;;;13.30;9.40;;;;;;;1.83;100.00;98366.42;432773;1257;142848;-70
2023/12/11 01:36:15;;;;;;;15.30;9.40;;;;;;;1.78;100.00;98373.73;435556;1255;139941;-70
2023/12/11 01:46:23;;;;;;;14.80;9.60;;;;;;;1.78;100.00;98345.12;435472;1259;139862;-70
2023/12/11 01:56:30;;;;;;;13.40;9.90;;;;;;;1.75;100.00;98327.33;435289;1255;140337;-70
2023/12/11 02:06:37;;;;;;;15.60;9.80;;;;;;;1.72;100.00;98335.05;434058;1258;140581;-71
2023/12/11 02:16:43;;;;;;;13.00;9.50;;;;;;;1.69;100.00;98330.52;435074;1257;140194;-69
2023/12/11 02:26:50;;;;;;;17.30;9.80;;;;;;;1.67;100.00;98322.48;436144;1259;140530;-71
2023/12/11 02:36:56;;;;;;;12.60;10.40;;;;;;;1.63;100.00;98302.48;434611;1254;140036;-71
2023/12/11 02:47:03;;;;;;;13.20;9.40;;;;;;;1.61;100.00;98283.80;436534;1254;140334;-70
2023/12/11 02:57:09;;;;;;;14.80;10.10;;;;;;;1.58;100.00;98252.05;434697;1255;141091;-70
2023/12/11 03:07:16;;;;;;;21.00;12.00;;;;;;;1.51;100.00;98218.02;433414;1257;140696;-70
2023/12/11 03:17:22;;;;;;;17.50;11.10;;;;;;;1.44;100.00;98210.98;448655;1255;140181;-70
2023/12/11 03:27:29;;;;;;;17.20;11.00;;;;;;;1.40;100.00;98206.17;433892;1254;139949;-71
2023/12/11 03:37:34;;;;;;;;;;;;;;;1.39;100.00;98202.75;435571;1254;141906;-70
2023/12/11 03:47:40;;;;;;;13.80;9.40;;;;;;;1.43;100.00;98202.75;435394;1254;126439;-71
2023/12/11 03:57:47;;;;;;;13.60;8.80;;;;;;;1.44;100.00;98191.63;434545;1255;140144;-70
2023/12/11 04:07:54;;;;;;;16.60;10.00;;;;;;;1.47;100.00;98200.83;434608;1258;141476;-69
2023/12/11 04:17:58;;;;;;;;;;;;;;;1.49;100.00;98191.75;433545;1255;142033;-71
2023/12/11 04:28:05;;;;;;;11.40;7.50;;;;;;;1.50;100.00;98198.77;434245;1260;126167;-69
2023/12/11 04:38:12;;;;;;;11.80;7.60;;;;;;;1.52;100.00;98188.35;435327;1259;140616;-69
2023/12/11 04:48:19;;;;;;;11.20;6.80;;;;;;;1.50;100.00;98175.64;438597;1256;139484;-69
2023/12/11 04:58:26;;;;;;;12.80;7.80;;;;;;;1.51;100.00;98162.70;433831;1254;139375;-70
2023/12/11 05:08:32;;;;;;;11.80;6.70;;;;;;;1.49;100.00;98155.73;435746;1259;139704;-69
2023/12/11 05:18:39;;;;;;;9.70;6.00;;;;;;;1.49;100.00;98132.25;434342;1260;140478;-70
2023/12/11 05:28:47;;;;;;;11.10;6.90;;;;;;;1.51;100.00;98113.52;434899;1256;140597;-70
2023/12/11 05:38:54;;;;;;;8.80;5.70;;;;;;;1.55;100.00;98100.07;442540;1256;140645;-70
2023/12/11 05:49:00;;;;;;;14.50;7.70;;;;;;;1.60;100.00;98104.30;433657;1256;140168;-71
2023/12/11 05:59:07;;;;;;;11.40;6.80;;;;;;;1.64;100.00;98095.99;435502;1255;140322;-70
2023/12/11 06:09:14;;;;;;;11.00;6.10;;;;;;;1.66;100.00;98083.09;434782;1259;140072;-71
2023/12/11 06:19:21;;;;;;;17.30;6.40;;;;;;;1.68;100.00;98065.73;433043;1259;139738;-70
2023/12/11 06:29:28;;;;;;;8.20;5.10;;;;;;;1.71;100.00;98050.09;443217;1258;140377;-71
2023/12/11 06:39:34;;;;;;;12.40;7.10;;;;;;;1.75;100.00;98036.05;433461;1258;139347;-70
2023/12/11 06:49:42;;;;;;;7.20;5.00;;;;;;;1.78;100.00;98032.09;438395;1255;140935;-71
2023/12/11 06:59:49;;;;;;;9.30;6.30;;;;;;;1.81;100.00;98025.54;438405;1255;139423;-71
2023/12/11 07:09:57;;;;;;;10.40;6.60;;;;;;;1.85;100.00;98017.10;433615;1260;140411;-71
2023/12/11 07:20:05;;;;;;;8.80;6.10;;;;;;;1.86;100.00;98012.36;433968;1259;139880;-71
2023/12/11 07:30:14;;;;;;;12.40;7.40;;;;;;;1.87;100.00;98018.52;433342;1260;140085;-69
2023/12/11 07:40:21;;;;;;;11.80;6.80;;;;;;;1.89;100.00;98027.20;439930;1257;140080;-66
2023/12/11 07:50:27;;;;;;;11.50;5.80;;;;;;;1.91;100.00;98014.66;434371;1260;139494;-69
2023/12/11 08:00:35;;;;;;;9.60;6.60;;;;;;;1.97;100.00;97995.20;433605;1260;140962;-67
2023/12/11 08:10:41;;;;;;;10.90;7.60;;;;;;;2.02;100.00;97981.34;439309;1258;141834;-74
2023/12/11 08:20:47;;;;;;;8.20;5.60;;;;;;;2.13;100.00;97980.56;438465;1260;140077;-67
2023/12/11 08:30:57;;;;;;;15.30;7.40;;;;;;;2.26;100.00;97977.72;437398;1258;139520;-80
2023/12/11 08:41:04;;;;;;;10.80;7.20;;;;;;;2.37;100.00;97975.59;438481;1258;139969;-76
2023/12/11 08:51:10;;;;;;;8.20;6.60;;;;;;;2.58;100.00;97975.61;438791;1260;139619;-76
2023/12/11 09:01:17;;;;;;;7.80;6.50;;;;;;;2.79;100.00;97972.16;438402;1258;140050;-73
2023/12/11 09:11:24;;;;;;;8.80;6.10;;;;;;;2.91;100.00;97973.75;436185;1258;139258;-74
2023/12/11 09:21:30;;;;;;;7.80;6.00;;;;;;;3.05;100.00;97977.25;438040;1260;139651;-70
2023/12/11 09:31:36;;;;;;;7.30;4.80;;;;;;;3.26;100.00;97967.73;438092;1255;139459;-74
2023/12/11 09:41:44;;;;;;;10.00;4.90;;;;;;;3.39;100.00;97960.71;438490;1260;139504;-69
2023/12/11 09:51:51;;;;;;;9.40;6.00;;;;;;;3.64;100.00;97959.54;434193;1260;140171;-75
2023/12/11 10:01:58;;;;;;;6.50;3.90;;;;;;;3.74;100.00;97951.33;438079;1260;140748;-70
2023/12/11 10:12:06;;;;;;;12.10;6.10;;;;;;;3.65;100.00;97950.66;438670;1255;139160;-73
2023/12/11 10:22:29;;;;;;;8.40;5.60;;;;;;;3.73;100.00;97941.87;439053;1260;139479;-68
2023/12/11 10:32:35;;;;;;;9.10;5.20;;;;;;;3.94;100.00;97928.24;441111;1256;140228;-72
2023/12/11 10:42:42;;;;;;;7.00;5.20;;;;;;;4.34;100.00;97922.98;438260;1260;139893;-74
2023/12/11 10:52:49;;;;;;;7.80;4.60;;;;;;;4.91;100.00;97920.29;436742;1260;139321;-76
2023/12/11 11:02:57;;;;;;;8.80;5.40;;;;;;;5.19;100.00;97914.38;433789;1260;139186;-61
2023/12/11 11:13:12;;;;;;;5.90;4.40;;;;;;;5.57;100.00;97912.98;438634;1259;140350;-60
2023/12/11 11:23:31;;;;;;;7.10;3.80;;;;;;;5.94;100.00;97907.14;433035;1260;139294;-61
2023/12/11 11:33:50;;;;;;;6.30;4.00;;;;;;;6.16;100.00;97898.23;433739;1260;139857;-60
2023/12/11 11:44:05;;;;;;;5.90;4.10;;;;;;;6.21;100.00;97884.83;433595;1260;140783;-60
2023/12/11 11:54:12;;;;;;;5.50;4.00;;;;;;;6.15;100.00;97880.96;434318;1260;140129;-61
2023/12/11 12:04:28;;;;;;;6.30;4.50;;;;;;;5.85;100.00;97881.54;433240;1260;139869;-61
2023/12/11 12:14:35;;;;;;;8.50;5.40;;;;;;;5.68;100.00;97871.29;433864;1260;139728;-60
2023/12/11 12:24:48;;;;;;;7.30;4.30;;;;;;;5.64;100.00;97865.70;435283;1257;139363;-61
2023/12/11 12:34:55;;;;;;;8.00;5.60;;;;;;;5.52;100.00;97855.73;434929;1260;139906;-60
2023/12/11 12:45:02;;;;;;;6.70;4.30;;;;;;;5.35;100.00;97860.36;432894;1260;139956;-61
2023/12/11 12:55:09;;;;;;;8.70;5.60;;;;;;;5.23;100.00;97858.80;434176;1260;140098;-60
2023/12/11 13:05:15;;;;;;;9.00;5.40;;;;;;;5.17;100.00;97863.86;434314;1258;184711;-59
2023/12/11 13:15:22;;;;;;;8.00;6.20;;;;;;;5.23;100.00;97869.90;432828;1257;141296;-61
2023/12/11 13:25:28;;;;;;;8.10;7.10;;;;;;;5.22;100.00;97871.67;433627;1257;140644;-60
2023/12/11 13:35:34;;;;;;;11.40;5.70;;;;;;;5.20;100.00;97873.41;432524;1257;139215;-62
2023/12/11 13:45:40;;;;;;;9.90;6.90;;;;;;;5.17;100.00;97868.05;432547;1260;139321;-61
2023/12/11 13:55:47;;;;;;;6.20;5.00;;;;;;;5.15;100.00;97870.11;432387;1257;139215;-65
2023/12/11 14:05:54;;;;;;;8.00;5.50;;;;;;;5.07;100.00;97871.49;438366;1258;138917;-80
2023/12/11 14:16:00;;;;;;;9.40;6.70;;;;;;;4.98;100.00;97884.21;438057;1260;139193;-77
2023/12/11 14:26:07;;;;;;;10.20;7.90;;;;;;;4.98;100.00;97892.23;438665;1258;139557;-67
2023/12/11 14:36:15;;;;;;;8.90;7.90;;;;;;;4.97;100.00;97903.41;432442;1258;140583;-67
2023/12/11 14:46:31;;;;;;;9.60;7.90;;;;;;;4.79;100.00;97909.79;435864;1260;139231;-73
2023/12/11 14:56:38;;;;;;;7.70;6.50;;;;;;;4.69;100.00;97902.81;434572;1258;140347;-64
2023/12/11 15:06:45;;;;;;;11.90;9.20;;;;;;;4.59;100.00;97903.47;432564;1257;139735;-64
2023/12/11 15:16:52;;;;;;;12.80;8.80;;;;;;;4.55;100.00;97901.88;437032;1256;139084;-77
2023/12/11 15:26:58;;;;;;;13.60;8.80;;;;;;;4.54;100.00;97895.70;438247;1260;139364;-77
2023/12/11 15:37:06;;;;;;;11.40;7.70;;;;;;;4.49;100.00;97890.62;433712;1257;141131;-72
2023/12/11 15:47:12;;;;;;;18.00;9.70;;;;;;;4.49;100.00;97883.16;435728;1257;139466;-72
2023/12/11 15:57:19;;;;;;;12.30;9.10;;;;;;;4.49;100.00;97892.02;432676;1258;139866;-72
2023/12/11 16:07:25;;;;;;;10.60;8.20;;;;;;;4.44;100.00;97885.89;438459;1260;139318;-72
2023/12/11 16:17:33;;;;;;;10.90;8.90;;;;;;;4.40;100.00;97895.73;438758;1255;140092;-71
2023/12/11 16:27:39;;;;;;;15.80;10.00;;;;;;;4.39;100.00;97892.69;435437;1254;139548;-70
2023/12/11 16:37:46;;;;;;;15.70;10.60;;;;;;;4.36;100.00;97894.27;438172;1255;140118;-69
2023/12/11 16:47:53;;;;;;;12.20;10.00;;;;;;;4.31;100.00;97890.03;435709;1255;140469;-73
2023/12/11 16:58:00;;;;;;;11.90;9.40;;;;;;;4.25;100.00;97880.77;434795;1259;139158;-68
2023/12/11 17:08:07;;;;;;;17.10;12.10;;;;;;;4.17;100.00;97876.08;433437;1254;140689;-67
2023/12/11 17:18:14;;;;;;;19.90;15.40;;;;;;;4.10;100.00;97873.77;437294;1256;139307;-64
2023/12/11 17:28:20;;;;;;;22.50;15.40;;;;;;;4.03;100.00;97870.36;435356;1257;141436;-63
2023/12/11 17:38:27;;;;;;;12.60;10.00;;;;;;;3.98;100.00;97862.55;433976;1257;140200;-65
2023/12/11 17:48:33;;;;;;;14.80;10.70;;;;;;;3.96;100.00;97856.65;434376;1260;139669;-64
2023/12/11 17:58:41;;;;;;;15.50;10.80;;;;;;;3.95;100.00;97859.30;433000;1254;140937;-65
2023/12/11 18:08:47;;;;;;;13.80;11.50;;;;;;;3.95;100.00;97851.38;433586;1258;139944;-65
2023/12/11 18:18:54;;;;;;;13.30;9.50;;;;;;;3.93;100.00;97846.42;433769;1256;139949;-64
2023/12/11 18:29:01;;;;;;;14.70;11.20;;;;;;;3.93;100.00;97826.50;437503;1257;139664;-65
2023/12/11 18:39:08;;;;;;;13.60;10.50;;;;;;;3.87;100.00;97823.82;435521;1257;140313;-64
2023/12/11 18:49:13;;;;;;;;;;;;;;;3.77;100.00;97838.44;435377;1257;139730;-65
2023/12/11 18:59:19;;;;;;;13.40;11.60;;;;;;;3.75;100.00;97833.38;432812;1257;126809;-65
2023/12/11 19:09:26;;;;;;;14.20;11.00;;;;;;;3.77;100.00;97832.56;432769;1259;140163;-65
2023/12/11 19:19:32;;;;;;;15.70;12.70;;;;;;;3.77;100.00;97830.63;433466;1259;139820;-65
2023/12/11 19:29:38;;;;;;;18.10;13.90;;;;;;;3.75;100.00;97831.12;435130;1255;139652;-64
2023/12/11 19:39:45;;;;;;;14.70;11.80;;;;;;;3.71;100.00;97828.14;433484;1259;140482;-65
2023/12/11 19:49:52;;;;;;;18.50;14.60;;;;;;;3.68;100.00;97825.88;435620;1257;139804;-64
2023/12/11 19:59:59;;;;;;;16.20;13.10;;;;;;;3.67;100.00;97820.06;433514;1257;140018;-66
2023/12/11 20:10:08;;;;;;;18.40;13.60;;;;;;;3.64;100.00;97823.90;432799;1260;139689;-65
2023/12/11 20:20:15;;;;;;;17.40;13.00;;;;;;;3.62;100.00;97821.77;435924;1256;140523;-65
2023/12/11 20:30:21;;;;;;;;;;;;;;;3.59;100.00;97820.50;432629;1260;139417;-64
2023/12/11 20:40:27;;;;;;;15.90;13.10;;;;;;;3.57;100.00;97823.42;432510;1255;125761;-65
2023/12/11 20:50:34;;;;;;;18.90;13.90;;;;;;;3.60;100.00;97828.80;433683;1254;140639;-64
2023/12/11 21:00:42;;;;;;;16.90;12.20;;;;;;;3.62;100.00;97831.08;433746;1257;141199;-66
2023/12/11 21:10:49;;;;;;;15.70;12.30;;;;;;;3.62;100.00;97829.52;433165;1254;139707;-66
2023/12/11 21:20:55;;;;;;;13.50;10.20;;;;;;;3.63;100.00;97828.06;434982;1260;140143;-66
2023/12/11 21:31:01;;;;;;;13.10;10.10;;;;;;;3.65;100.00;97831.41;432746;1260;139614;-66
2023/12/11 21:41:13;;;;;;;11.00;9.60;;;;;;;3.64;100.00;97835.28;434196;1257;140617;-66
2023/12/11 21:51:21;;;;;;;10.90;9.20;;;;;;;3.66;100.00;97839.54;435547;1255;140023;-66
2023/12/11 22:01:28;;;;;;;12.00;9.00;;;;;;;3.67;100.00;97842.89;433867;1257;140253;-67
2023/12/11 22:11:34;;;;;;;14.90;10.30;;;;;;;3.69;100.00;97849.70;433489;1259;139627;-67
2023/12/11 22:21:41;;;;;;;12.00;9.00;;;;;;;3.71;100.00;97862.58;434655;1258;139681;-67
2023/12/11 22:31:48;;;;;;;8.40;7.10;;;;;;;3.75;100.00;97865.21;435897;1257;141222;-68
2023/12/11 22:41:54;;;;;;;11.40;9.50;;;;;;;3.80;100.00;97867.17;435542;1257;140022;-68
2023/12/11 22:52:01;;;;;;;13.90;12.40;;;;;;;3.84;100.00;97867.48;435462;1255;140303;-66
2023/12/11 23:02:08;;;;;;;17.50;14.30;;;;;;;3.84;100.00;97871.27;434157;1259;139534;-68
2023/12/11 23:12:16;;;;;;;14.10;11.70;;;;;;;3.82;100.00;97871.38;432940;1255;140200;-67
2023/12/11 23:22:23;;;;;;;14.10;11.30;;;;;;;3.82;100.00;97869.67;433198;1260;139671;-67
2023/12/11 23:32:30;;;;;;;16.40;13.30;;;;;;;3.83;100.00;97875.33;434875;1255;139923;-67
2023/12/11 23:42:36;;;;;;;20.50;18.60;;;;;;;3.83;100.00;97883.59;432653;1257;139447;-67
2023/12/11 23:52:42;;;;;;;18.60;13.10;;;;;;;3.86;100.00;97891.39;432872;1259;140220;-67
